createdAt,value
2018-04-30T05:06:52.984Z,18.93
2018-04-30T05:16:54.330Z,16.80
2018-04-30T05:26:55.692Z,13.27
2018-04-30T05:36:57.022Z,15.53
2018-04-30T05:46:58.956Z,20.30
2018-04-30T06:07:07.443Z,13.53
2018-04-30T06:17:08.784Z,13.30
2018-04-30T06:27:10.118Z,13.17
2018-04-30T06:37:11.441Z,10.27
2018-04-30T06:47:12.766Z,14.37
2018-04-30T06:57:14.093Z,13.73
2018-04-30T07:07:15.466Z,11.97
2018-04-30T07:17:16.834Z,15.77
2018-04-30T07:27:18.193Z,11.37
2018-04-30T07:37:19.512Z,17.57
2018-04-30T07:47:21.611Z,11.77
2018-04-30T07:57:23.015Z,11.07
2018-04-30T08:07:24.290Z,9.15
2018-04-30T08:17:26.691Z,13.82
2018-04-30T08:27:28.017Z,10.93
2018-04-30T08:37:29.345Z,12.27
2018-04-30T08:47:31.439Z,10.52
2018-04-30T08:57:33.577Z,13.75
2018-04-30T09:07:35.666Z,9.40
2018-04-30T09:17:37.030Z,10.30
2018-04-30T09:27:38.389Z,11.43
2018-04-30T09:37:39.766Z,13.30
2018-04-30T09:47:41.153Z,10.60
2018-04-30T09:57:42.594Z,11.43
2018-04-30T10:07:43.930Z,9.40
2018-04-30T10:17:45.324Z,10.57
2018-04-30T10:27:46.667Z,10.88
2018-04-30T10:37:48.960Z,6.43
2018-04-30T10:47:51.406Z,9.00
2018-04-30T10:57:52.785Z,7.33
2018-04-30T11:07:57.557Z,12.30
2018-04-30T11:17:58.883Z,8.90
2018-04-30T11:28:01.003Z,9.60
2018-04-30T11:38:03.141Z,7.23
2018-04-30T11:48:05.237Z,11.50
2018-04-30T11:58:06.599Z,10.70
2018-04-30T12:08:08.732Z,13.93
2018-04-30T12:18:10.833Z,10.20
2018-04-30T12:28:12.169Z,6.73
2018-04-30T12:38:13.509Z,8.33
2018-04-30T12:58:21.605Z,9.57
2018-04-30T13:28:36.426Z,9.93
2018-04-30T13:38:42.375Z,11.83
2018-04-30T13:48:43.737Z,11.07
2018-04-30T14:08:53.409Z,8.40
2018-04-30T14:18:56.673Z,10.97
2018-04-30T14:29:01.534Z,6.03
2018-04-30T14:39:02.871Z,6.93
2018-04-30T14:49:04.201Z,3.37
2018-04-30T14:59:05.529Z,7.17
2018-04-30T15:09:06.855Z,4.90
2018-04-30T15:19:08.209Z,12.40
2018-04-30T15:29:09.557Z,6.20
2018-04-30T15:39:10.922Z,5.50
2018-04-30T15:49:12.288Z,8.63
2018-04-30T16:03:32.893Z,8.15
2018-04-30T16:23:41.567Z,9.17
2018-04-30T16:33:42.912Z,4.10
2018-04-30T16:53:52.278Z,4.07
2018-04-30T17:03:58.896Z,3.80
2018-04-30T17:14:00.244Z,3.43
2018-04-30T17:24:02.356Z,4.37
2018-04-30T17:34:04.451Z,6.03
2018-04-30T17:44:05.782Z,2.87
2018-04-30T17:54:08.027Z,5.50
2018-04-30T18:04:11.190Z,3.13
2018-04-30T18:14:12.519Z,4.47
2018-04-30T18:24:13.831Z,2.87
2018-04-30T18:34:19.180Z,2.73
2018-04-30T18:44:20.566Z,4.20
2018-04-30T18:54:21.939Z,5.23
2018-04-30T19:14:31.886Z,5.00
2018-04-30T19:24:33.203Z,5.07
2018-04-30T19:34:34.569Z,6.20
2018-04-30T19:44:36.732Z,5.43
2018-04-30T19:54:38.106Z,6.30
2018-04-30T20:04:39.473Z,4.53
2018-04-30T20:14:40.829Z,5.83
2018-04-30T20:24:42.183Z,6.03
2018-04-30T20:34:46.426Z,4.47
2018-04-30T20:44:47.810Z,3.17
2018-04-30T20:54:49.234Z,5.50
2018-04-30T21:04:50.591Z,4.17
2018-04-30T21:14:51.941Z,4.77
2018-04-30T21:24:54.070Z,5.33
2018-04-30T21:34:56.563Z,5.97
2018-04-30T21:44:57.962Z,5.07
2018-04-30T21:54:59.315Z,4.13
2018-04-30T22:05:00.659Z,3.23
2018-04-30T22:15:02.023Z,5.03
2018-04-30T22:25:03.468Z,3.83
2018-04-30T22:35:05.609Z,4.63
2018-04-30T22:45:06.929Z,9.23
2018-04-30T22:55:08.306Z,4.40
2018-04-30T23:05:09.680Z,4.63
2018-04-30T23:15:11.776Z,7.03
2018-04-30T23:25:13.104Z,4.13
2018-04-30T23:35:14.475Z,5.30
2018-04-30T23:45:16.580Z,2.17
2018-04-30T23:55:17.940Z,2.47
